createdAt,value
2019-04-23T00:00:13.954Z,67.8538
2019-04-23T00:01:28.456Z,66.4698
2019-04-23T00:02:30.128Z,69.3370
2019-04-23T00:03:34.534Z,67.2999
2019-04-23T00:06:00.526Z,64.8142
2019-04-23T00:07:09.255Z,69.9123
2019-04-23T00:08:09.699Z,66.6911
2019-04-23T00:09:20.511Z,69.5964
2019-04-23T00:10:30.049Z,69.6101
2019-04-23T00:11:35.754Z,69.6391
2019-04-23T00:13:49.823Z,65.0278
2019-04-23T00:15:04.399Z,64.5975
2019-04-23T00:16:18.630Z,64.7532
2019-04-23T00:17:19.284Z,67.1626
2019-04-23T00:18:26.526Z,67.9026
2019-04-23T00:19:32.958Z,69.1859
2019-04-23T00:20:33.989Z,68.5618
2019-04-23T00:21:49.989Z,66.1952
2019-04-23T00:26:25.263Z,64.9775
2019-04-23T00:27:29.518Z,70.6996
2019-04-23T00:28:38.958Z,66.2882
2019-04-23T00:29:48.463Z,71.6335
2019-04-23T00:30:55.043Z,73.7865
2019-04-23T00:32:05.061Z,69.4743
2019-04-23T00:33:12.058Z,70.0923
2019-04-23T00:34:28.069Z,68.7099
2019-04-23T00:35:18.164Z,70.6050
2019-04-23T00:36:32.498Z,69.0745
2019-04-23T00:37:35.310Z,69.5644
2019-04-23T00:38:45.169Z,69.5964
2019-04-23T00:39:52.845Z,68.6854
2019-04-23T00:41:02.876Z,68.1590
2019-04-23T00:42:15.482Z,66.7048
2019-04-23T00:44:33.583Z,68.9387
2019-04-23T00:45:41.137Z,66.8360
2019-04-23T00:46:43.473Z,66.0029
2019-04-23T00:47:52.655Z,65.5467
2019-04-23T00:51:09.989Z,68.4260
2019-04-23T00:52:28.920Z,68.4123
2019-04-23T00:53:28.316Z,69.0379
2019-04-23T00:54:39.220Z,68.9754
2019-04-23T00:58:10.776Z,70.2663
2019-04-23T00:59:12.574Z,68.8731
2019-04-23T01:00:32.142Z,70.8431
2019-04-23T01:01:41.321Z,68.5542
2019-04-23T01:02:36.952Z,69.0928
2019-04-23T01:03:39.485Z,69.9947
2019-04-23T01:04:56.437Z,69.8070
2019-04-23T01:06:02.724Z,68.5389
2019-04-23T01:07:14.734Z,67.4174
2019-04-23T01:08:20.127Z,64.8234
2019-04-23T01:10:41.419Z,71.4137
2019-04-23T01:11:41.914Z,68.0354
2019-04-23T01:12:51.487Z,72.1843
2019-04-23T01:14:04.348Z,71.4366
2019-04-23T01:15:04.669Z,73.6523
2019-04-23T01:16:13.153Z,72.7474
2019-04-23T01:17:30.209Z,70.5394
2019-04-23T01:18:45.284Z,71.1391
2019-04-23T01:19:41.870Z,71.6533
2019-04-23T01:20:44.179Z,71.7723
2019-04-23T01:21:32.535Z,72.6451
2019-04-23T01:22:35.718Z,70.4845
2019-04-23T01:23:45.869Z,70.6188
2019-04-23T01:24:48.227Z,71.0353
2019-04-23T01:26:00.271Z,72.6604
2019-04-23T01:27:39.312Z,73.3272
2019-04-23T01:28:39.631Z,73.2601
2019-04-23T01:29:42.534Z,73.4569
2019-04-23T01:32:02.790Z,74.2428
2019-04-23T01:33:10.992Z,74.3313
2019-04-23T01:34:19.759Z,74.9798
2019-04-23T01:35:18.908Z,74.4503
2019-04-23T01:37:43.255Z,75.3429
2019-04-23T01:38:55.687Z,74.7417
2019-04-23T01:39:58.169Z,74.8150
2019-04-23T01:41:00.367Z,75.4482
2019-04-23T01:42:22.472Z,72.2484
2019-04-23T01:43:19.657Z,74.3267
2019-04-23T01:44:31.345Z,74.7509
2019-04-23T01:45:42.123Z,71.7800
2019-04-23T01:46:45.416Z,74.7326
2019-04-23T01:47:50.042Z,74.6426
2019-04-23T01:49:02.121Z,74.0200
2019-04-23T01:51:06.288Z,70.6874
2019-04-23T01:52:25.002Z,68.9799
2019-04-23T01:53:37.076Z,75.7961
2019-04-23T01:54:37.102Z,74.7295
2019-04-23T01:55:46.543Z,73.0114
2019-04-23T01:56:56.613Z,74.3847
2019-04-23T01:58:24.015Z,73.0526
2019-04-23T01:59:11.985Z,72.4575
2019-04-23T02:00:22.822Z,70.2831
2019-04-23T02:01:44.604Z,74.2336
2019-04-23T02:02:47.659Z,74.9126
2019-04-23T02:03:46.986Z,73.8964
2019-04-23T02:04:53.787Z,73.1411
2019-04-23T02:06:00.027Z,68.7053
2019-04-23T02:07:11.297Z,68.8685
2019-04-23T02:08:15.647Z,70.9575
2019-04-23T02:09:24.998Z,70.5623
2019-04-23T02:10:41.596Z,73.1533
2019-04-23T02:11:40.290Z,73.5576
2019-04-23T02:13:56.801Z,73.9269
2019-04-23T02:15:05.113Z,72.4804
2019-04-23T02:16:15.255Z,70.5303
2019-04-23T02:17:21.956Z,70.0145
2019-04-23T02:18:33.913Z,74.8974
2019-04-23T02:19:40.483Z,72.5948
2019-04-23T02:21:55.111Z,69.0349
2019-04-23T02:24:06.729Z,70.1961
2019-04-23T02:25:25.106Z,72.3857
2019-04-23T02:26:41.715Z,74.4915
2019-04-23T02:27:36.109Z,71.7342
2019-04-23T02:28:49.629Z,71.1269
2019-04-23T02:30:05.799Z,74.5739
2019-04-23T02:32:09.227Z,70.5623
2019-04-23T02:33:31.978Z,69.2866
2019-04-23T02:34:47.191Z,69.5109
2019-04-23T02:35:50.576Z,72.2835
2019-04-23T02:36:48.814Z,73.5378
2019-04-23T02:40:26.691Z,68.7999
2019-04-23T02:43:00.892Z,70.3670
2019-04-23T02:43:22.011Z,68.5908
2019-04-23T02:45:56.413Z,66.4836
2019-04-23T02:48:10.514Z,67.7302
2019-04-23T02:50:34.943Z,64.8737
2019-04-23T02:51:30.877Z,74.9203
2019-04-23T02:53:53.513Z,72.5353
2019-04-23T02:54:58.600Z,66.2379
2019-04-23T02:56:24.135Z,69.7169
2019-04-23T02:57:08.812Z,71.7678
2019-04-23T02:58:18.567Z,69.7124
2019-04-23T02:59:34.507Z,71.7067
2019-04-23T03:01:39.987Z,63.4440
2019-04-23T03:04:02.324Z,70.0084
2019-04-23T03:05:19.903Z,70.4448
2019-04-23T03:06:16.698Z,71.0063
2019-04-23T03:08:32.499Z,65.9342
2019-04-23T03:10:55.630Z,69.0028
2019-04-23T03:12:00.723Z,70.9468
2019-04-23T03:13:10.227Z,64.8692
2019-04-23T03:14:16.875Z,69.8894
2019-04-23T03:15:35.515Z,70.2205
2019-04-23T03:17:36.055Z,67.2312
2019-04-23T03:18:49.304Z,60.6531
2019-04-23T03:22:14.975Z,69.7932
2019-04-23T03:23:29.178Z,70.6462
2019-04-23T03:24:38.877Z,67.6982
2019-04-23T03:25:46.074Z,68.2918
2019-04-23T03:26:47.837Z,62.4872
2019-04-23T03:27:41.599Z,65.9297
2019-04-23T03:29:04.355Z,70.0359
2019-04-23T03:30:15.770Z,65.8763
2019-04-23T03:38:16.551Z,61.9989
2019-04-23T03:38:56.610Z,61.6587
2019-04-23T03:43:49.070Z,63.5645
2019-04-23T03:45:00.770Z,64.0314
2019-04-23T03:47:13.817Z,61.1643
2019-04-23T03:49:19.550Z,61.2207
2019-04-23T03:51:43.411Z,58.8983
2019-04-23T03:52:50.621Z,60.8866
2019-04-23T03:54:11.653Z,66.1372
2019-04-23T03:55:03.704Z,61.3611
2019-04-23T03:56:25.469Z,62.3194
2019-04-23T03:58:28.180Z,62.3316
2019-04-23T04:00:58.050Z,61.0956
2019-04-23T04:02:03.492Z,60.1709
2019-04-23T04:04:24.740Z,61.9974
2019-04-23T04:05:23.999Z,66.6041
2019-04-23T04:07:37.546Z,67.4357
2019-04-23T04:08:33.892Z,63.5554
2019-04-23T04:09:47.638Z,64.5533
2019-04-23T04:12:04.462Z,67.0481
2019-04-23T04:13:15.860Z,68.2750
2019-04-23T04:15:46.202Z,66.0914
2019-04-23T04:16:51.681Z,69.1310
2019-04-23T04:17:48.541Z,62.7497
2019-04-23T04:18:54.646Z,65.4414
2019-04-23T04:20:11.050Z,65.0645
2019-04-23T04:23:33.473Z,68.8960
2019-04-23T04:24:34.659Z,70.6905
2019-04-23T04:25:49.866Z,64.5624
2019-04-23T04:28:03.491Z,63.4180
2019-04-23T04:29:19.433Z,64.1993
2019-04-23T04:30:10.724Z,65.9068
2019-04-23T04:31:21.038Z,64.7349
2019-04-23T04:32:38.300Z,66.5019
2019-04-23T04:33:56.000Z,70.6996
2019-04-23T04:35:58.473Z,68.1880
2019-04-23T04:37:35.197Z,69.6895
2019-04-23T04:38:25.725Z,67.7119
2019-04-23T04:39:19.682Z,62.9328
2019-04-23T04:41:39.963Z,61.8326
2019-04-23T04:42:41.899Z,62.2827
2019-04-23T04:45:09.631Z,64.1596
2019-04-23T04:46:25.380Z,65.2522
2019-04-23T04:47:21.519Z,63.7751
2019-04-23T04:48:26.086Z,66.2425
2019-04-23T04:50:45.849Z,65.8289
2019-04-23T04:53:00.749Z,69.0669
2019-04-23T04:54:17.845Z,68.5588
2019-04-23T04:55:12.940Z,68.5634
2019-04-23T04:56:20.935Z,70.7927
2019-04-23T04:58:43.261Z,71.6060
2019-04-23T04:59:50.947Z,71.5251
2019-04-23T05:01:04.081Z,70.0191
2019-04-23T05:02:09.668Z,65.4948
2019-04-23T05:04:19.833Z,65.1240
2019-04-23T05:06:01.761Z,66.6209
2019-04-23T05:06:39.407Z,66.5888
2019-04-23T05:07:40.487Z,67.6509
2019-04-23T05:10:12.751Z,66.4698
2019-04-23T05:11:11.335Z,68.4901
2019-04-23T05:12:18.359Z,69.1630
2019-04-23T05:16:47.035Z,68.9754
2019-04-23T05:19:02.517Z,71.7617
2019-04-23T05:20:05.642Z,69.2119
2019-04-23T05:21:12.053Z,65.3025
2019-04-23T05:22:22.518Z,68.8975
2019-04-23T05:23:28.143Z,67.9850
2019-04-23T05:24:37.056Z,71.4565
2019-04-23T05:25:47.816Z,67.6341
2019-04-23T05:26:48.126Z,64.4343
2019-04-23T05:29:15.227Z,66.5431
2019-04-23T05:32:32.939Z,74.2306
2019-04-23T05:33:39.106Z,74.8394
2019-04-23T05:34:46.687Z,73.1685
2019-04-23T05:38:37.696Z,66.9749
2019-04-23T05:40:42.843Z,65.7557
2019-04-23T05:41:36.805Z,68.7541
2019-04-23T05:42:49.377Z,69.6010
2019-04-23T05:43:57.361Z,71.1086
2019-04-23T05:46:19.822Z,70.1503
2019-04-23T05:47:20.308Z,71.7311
2019-04-23T05:48:23.408Z,71.2032
2019-04-23T05:49:31.274Z,68.0400
2019-04-23T05:50:53.901Z,70.9285
2019-04-23T05:52:59.273Z,66.4988
2019-04-23T05:54:08.472Z,69.9367
2019-04-23T05:55:13.649Z,67.6326
2019-04-23T05:56:21.392Z,66.0166
2019-04-23T05:57:19.813Z,71.4748
2019-04-23T05:59:51.714Z,73.0999
2019-04-23T06:01:26.374Z,73.9086
2019-04-23T06:05:37.088Z,67.9683
2019-04-23T06:06:45.182Z,64.4877
2019-04-23T06:08:53.362Z,70.9606
2019-04-23T06:10:00.576Z,67.0878
2019-04-23T06:11:08.544Z,73.2372
2019-04-23T06:12:16.842Z,72.4544
2019-04-23T06:13:26.338Z,69.0074
2019-04-23T06:14:35.682Z,68.9876
2019-04-23T06:15:36.916Z,68.7358
2019-04-23T06:16:55.242Z,70.1412
2019-04-23T06:18:02.309Z,72.6955
2019-04-23T06:19:09.604Z,74.0887
2019-04-23T06:21:24.142Z,73.1411
2019-04-23T06:22:48.106Z,71.5023
2019-04-23T06:23:50.108Z,70.8095
2019-04-23T06:24:41.080Z,73.9330
2019-04-23T06:26:19.856Z,68.8045
2019-04-23T06:27:01.727Z,65.2262
2019-04-23T06:29:20.540Z,73.3562
2019-04-23T06:30:27.834Z,69.6284
2019-04-23T06:31:38.067Z,70.0191
2019-04-23T06:32:37.582Z,67.2206
2019-04-23T06:33:52.332Z,68.7831
2019-04-23T06:34:52.823Z,69.6620
2019-04-23T06:36:06.584Z,70.0328
2019-04-23T06:37:08.976Z,73.3272
2019-04-23T06:39:29.259Z,70.8339
2019-04-23T06:40:34.078Z,71.2093
2019-04-23T06:41:49.944Z,70.4677
2019-04-23T06:42:53.135Z,70.4616
2019-04-23T06:44:05.845Z,68.2429
2019-04-23T06:45:06.325Z,68.4901
2019-04-23T06:46:19.990Z,66.1631
2019-04-23T06:47:23.521Z,66.6438
2019-04-23T06:48:35.230Z,67.4083
2019-04-23T06:49:49.523Z,71.4778
2019-04-23T06:51:04.654Z,70.5180
2019-04-23T06:53:00.629Z,70.7195
2019-04-23T06:54:13.450Z,69.3004
2019-04-23T06:55:20.389Z,67.2816
2019-04-23T06:56:35.182Z,70.0877
2019-04-23T06:57:41.145Z,66.1540
2019-04-23T06:58:43.965Z,67.7806
2019-04-23T06:59:52.533Z,63.4409
2019-04-23T07:01:00.399Z,68.8060
2019-04-23T07:02:17.238Z,60.7126
2019-04-23T07:03:23.322Z,61.7380
2019-04-23T07:04:28.648Z,63.5264
2019-04-23T07:05:39.350Z,66.3340
2019-04-23T07:06:47.160Z,66.9780
2019-04-23T07:07:50.037Z,65.8106
2019-04-23T07:09:07.802Z,57.1878
2019-04-23T07:10:07.251Z,58.1292
2019-04-23T07:11:23.394Z,55.8129
2019-04-23T07:12:25.770Z,56.2493
2019-04-23T07:13:40.185Z,58.7808
2019-04-23T07:14:44.152Z,56.1013
2019-04-23T07:16:52.649Z,65.0797
2019-04-23T07:18:03.980Z,63.2074
2019-04-23T07:19:18.599Z,56.0937
2019-04-23T07:20:25.236Z,55.5261
2019-04-23T07:21:29.544Z,54.5357
2019-04-23T07:22:53.880Z,54.5586
2019-04-23T07:23:53.884Z,54.5281
2019-04-23T07:24:50.912Z,57.6989
2019-04-23T07:26:14.082Z,59.3942
2019-04-23T07:27:04.830Z,60.3647
2019-04-23T07:28:21.424Z,65.5451
2019-04-23T07:29:26.307Z,61.3336
2019-04-23T07:30:33.314Z,58.1811
2019-04-23T07:31:44.487Z,56.1074
2019-04-23T07:32:52.582Z,59.5987
2019-04-23T07:35:07.115Z,56.8673
2019-04-23T07:36:17.190Z,58.8113
2019-04-23T07:37:17.614Z,62.3407
2019-04-23T07:38:40.912Z,60.1953
2019-04-23T07:39:45.630Z,62.8504
2019-04-23T07:40:40.479Z,65.4871
2019-04-23T07:43:03.474Z,66.5751
2019-04-23T07:44:20.738Z,64.5945
2019-04-23T07:46:38.334Z,60.9308
2019-04-23T07:47:55.303Z,63.2563
2019-04-23T07:48:37.233Z,68.7831
2019-04-23T07:50:04.979Z,58.6114
2019-04-23T07:51:06.485Z,61.4618
2019-04-23T07:52:18.008Z,59.3393
2019-04-23T07:55:43.594Z,62.2507
2019-04-23T07:56:45.960Z,60.9140
2019-04-23T07:57:52.373Z,56.6690
2019-04-23T07:58:57.688Z,56.2036
2019-04-23T08:01:09.567Z,55.8175
2019-04-23T08:02:26.149Z,54.2672
2019-04-23T08:03:43.574Z,54.7875
2019-04-23T08:04:42.571Z,55.8175
2019-04-23T08:05:59.406Z,56.4462
2019-04-23T08:06:52.417Z,56.1303
2019-04-23T08:08:01.649Z,56.7971
2019-04-23T08:09:15.888Z,62.9740
2019-04-23T08:10:14.200Z,57.0138
2019-04-23T08:11:35.888Z,56.1059
2019-04-23T08:12:46.939Z,56.8994
2019-04-23T08:13:55.553Z,57.1221
2019-04-23T08:14:53.540Z,58.3032
2019-04-23T08:15:58.561Z,54.7753
2019-04-23T08:17:07.097Z,57.1221
2019-04-23T08:18:26.295Z,55.3094
2019-04-23T08:19:24.560Z,59.0097
2019-04-23T08:20:46.961Z,61.4771
2019-04-23T08:21:32.022Z,57.0916
2019-04-23T08:22:45.807Z,61.8296
2019-04-23T08:23:58.598Z,59.6460
2019-04-23T08:26:23.888Z,52.5185
2019-04-23T08:28:35.421Z,61.2802
2019-04-23T08:29:28.015Z,58.0987
2019-04-23T08:31:52.840Z,50.5852
2019-04-23T08:33:00.308Z,52.9427
2019-04-23T08:34:17.013Z,53.0083
2019-04-23T08:35:33.965Z,57.5204
2019-04-23T08:36:27.261Z,51.6793
2019-04-23T08:37:47.868Z,55.0210
2019-04-23T08:39:46.990Z,54.9660
2019-04-23T08:41:12.864Z,54.2397
2019-04-23T08:42:27.309Z,56.2020
2019-04-23T08:43:19.391Z,59.0921
2019-04-23T08:46:51.996Z,55.9777
2019-04-23T08:47:50.686Z,50.8064
2019-04-23T08:49:00.805Z,52.4620
2019-04-23T08:50:04.326Z,52.4819
2019-04-23T08:51:25.973Z,52.6268
2019-04-23T08:52:18.251Z,49.5140
2019-04-23T08:53:37.557Z,54.6426
2019-04-23T08:55:53.925Z,47.6417
2019-04-23T08:56:55.151Z,50.9026
2019-04-23T08:57:56.124Z,49.4911
2019-04-23T08:59:21.332Z,49.6254
2019-04-23T09:00:20.663Z,50.6416
2019-04-23T09:01:24.881Z,50.6371
2019-04-23T09:04:55.423Z,56.8292
2019-04-23T09:06:11.804Z,51.7998
2019-04-23T09:07:12.883Z,51.9585
2019-04-23T09:08:20.347Z,53.7270
2019-04-23T09:09:27.151Z,51.6060
2019-04-23T09:10:36.060Z,48.2734
2019-04-23T09:16:05.248Z,47.5502
2019-04-23T09:18:23.061Z,44.7807
2019-04-23T09:19:41.218Z,45.0782
2019-04-23T09:20:30.647Z,44.3732
2019-04-23T09:21:50.370Z,45.5467
2019-04-23T09:22:53.043Z,47.9637
2019-04-23T09:24:07.290Z,45.2659
2019-04-23T09:25:23.131Z,44.6128
2019-04-23T09:26:07.985Z,45.5558
2019-04-23T09:27:41.435Z,47.1122
2019-04-23T09:28:45.739Z,44.6769
2019-04-23T09:29:52.914Z,46.5080
2019-04-23T09:30:57.488Z,44.3976
2019-04-23T09:33:13.931Z,43.2074
2019-04-23T09:34:19.344Z,44.5563
2019-04-23T09:35:27.435Z,44.8447
2019-04-23T09:36:37.966Z,43.9582
2019-04-23T09:38:54.101Z,45.6779
2019-04-23T09:39:58.857Z,45.1331
2019-04-23T09:41:22.326Z,44.9226
2019-04-23T09:42:19.502Z,45.7435
2019-04-23T09:43:22.927Z,46.3844
2019-04-23T09:45:41.209Z,46.8086
2019-04-23T09:46:55.756Z,49.8756
2019-04-23T09:49:16.226Z,45.4185
2019-04-23T09:50:15.695Z,49.0700
2019-04-23T09:51:25.492Z,50.3746
2019-04-23T09:52:30.941Z,46.1402
2019-04-23T09:53:33.926Z,50.1976
2019-04-23T09:54:49.587Z,45.9297
2019-04-23T09:55:49.860Z,46.0945
2019-04-23T09:56:57.040Z,45.9068
2019-04-23T09:58:11.639Z,44.9683
2019-04-23T09:59:28.625Z,46.7033
2019-04-23T10:00:31.507Z,44.7852
2019-04-23T10:01:29.207Z,47.9500
2019-04-23T10:02:29.155Z,45.3086
2019-04-23T10:03:39.046Z,44.3290
2019-04-23T10:04:46.312Z,42.5605
2019-04-23T10:05:50.574Z,44.3061
2019-04-23T10:07:00.273Z,50.5531
2019-04-23T10:08:04.136Z,42.1851
2019-04-23T10:09:05.463Z,44.4968
2019-04-23T10:10:10.301Z,41.8708
2019-04-23T10:11:13.797Z,41.1109
2019-04-23T10:12:17.624Z,43.5035
2019-04-23T10:13:20.180Z,42.7726
2019-04-23T10:14:24.143Z,42.7039
2019-04-23T10:15:34.349Z,44.2191
2019-04-23T10:16:43.171Z,42.7024
2019-04-23T10:17:46.459Z,42.3545
2019-04-23T10:18:49.228Z,42.8489
2019-04-23T10:19:53.007Z,41.2711
2019-04-23T10:20:56.537Z,42.7024
2019-04-23T10:21:59.844Z,42.7405
2019-04-23T10:23:04.213Z,43.9750
2019-04-23T10:24:07.584Z,43.1830
2019-04-23T10:25:10.999Z,43.0976
2019-04-23T10:26:14.396Z,45.9174
2019-04-23T10:27:18.770Z,42.5162
2019-04-23T10:28:22.970Z,42.7436
2019-04-23T10:29:27.740Z,44.5609
2019-04-23T10:30:29.179Z,47.3915
2019-04-23T10:31:33.480Z,41.5167
2019-04-23T10:32:37.764Z,41.4664
2019-04-23T10:33:40.199Z,42.9648
2019-04-23T10:34:53.506Z,43.8621
2019-04-23T10:35:56.995Z,40.7294
2019-04-23T10:36:59.637Z,45.6733
2019-04-23T10:38:06.594Z,42.7481
2019-04-23T10:39:17.830Z,40.1572
2019-04-23T10:40:25.486Z,40.4242
2019-04-23T10:41:27.749Z,37.8973
2019-04-23T10:42:34.062Z,37.0062
2019-04-23T10:43:42.139Z,38.3673
2019-04-23T10:44:50.410Z,41.9944
2019-04-23T10:46:15.429Z,41.7777
2019-04-23T10:47:32.330Z,39.3973
2019-04-23T10:48:47.671Z,39.6506
2019-04-23T10:49:52.941Z,41.1475
2019-04-23T10:51:00.326Z,38.6526
2019-04-23T10:52:19.072Z,40.5463
2019-04-23T10:54:32.998Z,40.4639
2019-04-23T10:55:34.567Z,38.5138
2019-04-23T10:56:43.351Z,37.8363
2019-04-23T10:57:39.257Z,42.1530
2019-04-23T10:58:45.830Z,38.6618
2019-04-23T10:59:53.590Z,41.7746
2019-04-23T11:03:42.424Z,39.3515
2019-04-23T11:04:47.632Z,39.3439
2019-04-23T11:05:55.202Z,38.3627
2019-04-23T11:06:49.985Z,38.0941
2019-04-23T11:07:53.614Z,39.5453
2019-04-23T11:09:25.525Z,38.4268
2019-04-23T11:10:17.440Z,39.7742
2019-04-23T11:11:32.346Z,35.5825
2019-04-23T11:13:38.022Z,35.7488
2019-04-23T11:14:49.811Z,36.3210
2019-04-23T11:16:21.573Z,34.6487
2019-04-23T11:17:04.278Z,35.3765
2019-04-23T11:18:04.158Z,35.4192
2019-04-23T11:19:25.580Z,35.3124
2019-04-23T11:22:45.168Z,37.3815
2019-04-23T11:24:20.726Z,34.0780
2019-04-23T11:25:15.130Z,33.1060
2019-04-23T11:26:15.584Z,36.1730
2019-04-23T11:27:22.321Z,34.8516
2019-04-23T11:28:27.848Z,41.8753
2019-04-23T11:29:40.482Z,36.8566
2019-04-23T11:31:55.266Z,38.4054
2019-04-23T11:33:15.709Z,40.1205
2019-04-23T11:34:20.295Z,32.6711
2019-04-23T11:35:42.466Z,38.5794
2019-04-23T11:37:53.370Z,38.2254
2019-04-23T11:38:56.099Z,38.2315
2019-04-23T11:39:51.606Z,40.0427
2019-04-23T11:40:59.957Z,37.0535
2019-04-23T11:44:26.391Z,37.9049
2019-04-23T11:46:54.021Z,34.4579
2019-04-23T11:49:22.564Z,35.7443
2019-04-23T11:52:30.612Z,34.2062
2019-04-23T11:53:36.046Z,36.1593
2019-04-23T11:54:35.547Z,34.9020
2019-04-23T11:58:16.660Z,38.4787
2019-04-23T11:59:19.058Z,41.0925
2019-04-23T12:01:42.211Z,34.2199
2019-04-23T12:02:40.073Z,39.7086
2019-04-23T12:03:58.646Z,38.5092
2019-04-23T12:05:05.494Z,41.9608
2019-04-23T12:06:07.159Z,35.1339
2019-04-23T12:07:09.115Z,37.1038
2019-04-23T12:08:26.673Z,37.9690
2019-04-23T12:09:40.082Z,37.1710
2019-04-23T12:10:37.721Z,37.0352
2019-04-23T12:12:44.803Z,35.6527
2019-04-23T12:14:03.709Z,37.0077
2019-04-23T12:15:15.336Z,35.9548
2019-04-23T12:16:20.562Z,32.6360
2019-04-23T12:17:31.734Z,33.3318
2019-04-23T12:20:57.556Z,36.5393
2019-04-23T12:22:01.399Z,34.9142
2019-04-23T12:23:19.383Z,36.7788
2019-04-23T12:24:21.889Z,34.8745
2019-04-23T12:25:25.128Z,32.2362
2019-04-23T12:27:31.481Z,34.1543
2019-04-23T12:28:46.976Z,35.3643
2019-04-23T12:30:08.641Z,35.7763
2019-04-23T12:31:02.742Z,32.7535
2019-04-23T12:32:24.055Z,34.5907
2019-04-23T12:33:28.162Z,38.8663
2019-04-23T12:34:30.007Z,35.9365
2019-04-23T12:35:29.023Z,31.3848
2019-04-23T12:36:44.139Z,30.9636
2019-04-23T12:37:49.381Z,30.1640
2019-04-23T12:39:05.389Z,35.6741
2019-04-23T12:41:12.841Z,35.9548
2019-04-23T12:42:45.207Z,34.8333
2019-04-23T12:43:25.452Z,38.1079
2019-04-23T12:44:44.196Z,31.3359
2019-04-23T12:47:05.371Z,35.5383
2019-04-23T12:48:09.605Z,38.6664
2019-04-23T12:49:20.541Z,30.2052
2019-04-23T12:50:41.811Z,32.1965
2019-04-23T12:51:38.078Z,33.0510
2019-04-23T12:54:01.395Z,30.2373
2019-04-23T12:56:21.334Z,37.1405
2019-04-23T12:58:15.741Z,37.5769
2019-04-23T12:59:27.232Z,32.2789
2019-04-23T13:00:35.825Z,35.2270
2019-04-23T13:01:42.702Z,28.8914
2019-04-23T13:02:48.574Z,37.8454
2019-04-23T13:03:50.582Z,31.8029
2019-04-23T13:05:23.157Z,35.5932
2019-04-23T13:06:09.547Z,36.8795
2019-04-23T13:07:26.074Z,30.1366
2019-04-23T13:08:41.566Z,35.3170
2019-04-23T13:10:45.322Z,36.7926
2019-04-23T13:12:05.676Z,34.8363
2019-04-23T13:13:09.318Z,34.3114
2019-04-23T13:14:17.376Z,31.0231
2019-04-23T13:16:37.674Z,40.8270
2019-04-23T13:17:48.935Z,31.4092
2019-04-23T13:18:46.754Z,37.8225
2019-04-23T13:19:58.267Z,29.5445
2019-04-23T13:21:00.031Z,33.4508
2019-04-23T13:23:34.542Z,34.8791
2019-04-23T13:24:26.546Z,31.1574
2019-04-23T13:26:40.086Z,33.8994
2019-04-23T13:28:01.902Z,31.8883
2019-04-23T13:29:05.039Z,31.7067
2019-04-23T13:30:08.632Z,30.0267
2019-04-23T13:32:32.704Z,29.5811
2019-04-23T13:34:49.937Z,29.9992
2019-04-23T13:35:53.282Z,39.2645
2019-04-23T13:37:08.300Z,30.2739
2019-04-23T13:38:10.402Z,29.6788
2019-04-23T13:39:24.678Z,34.7097
2019-04-23T13:40:27.739Z,31.0414
2019-04-23T13:41:23.134Z,37.1481
2019-04-23T13:42:52.541Z,37.3037
2019-04-23T13:43:54.842Z,35.2667
2019-04-23T13:44:54.789Z,35.7839
2019-04-23T13:46:10.011Z,34.1039
2019-04-23T13:47:21.976Z,37.3724
2019-04-23T13:49:31.552Z,34.2748
2019-04-23T13:50:43.294Z,31.7281
2019-04-23T13:51:43.505Z,32.5429
2019-04-23T13:53:15.296Z,32.5399
2019-04-23T13:54:17.343Z,32.5811
2019-04-23T13:55:09.206Z,35.8389
2019-04-23T13:56:29.700Z,35.3445
2019-04-23T13:57:59.220Z,37.5708
2019-04-23T13:58:36.316Z,30.5516
2019-04-23T13:59:44.467Z,30.4891
2019-04-23T14:01:01.262Z,32.9335
2019-04-23T14:02:08.198Z,29.6101
2019-04-23T14:03:09.795Z,30.8766
2019-04-23T14:04:21.329Z,32.8817
2019-04-23T14:05:26.753Z,30.0954
2019-04-23T14:06:36.694Z,32.3003
2019-04-23T14:07:48.326Z,31.4946
2019-04-23T14:10:08.627Z,39.4202
2019-04-23T14:11:13.370Z,28.0125
2019-04-23T14:12:18.226Z,33.0251
2019-04-23T14:13:39.332Z,33.9086
2019-04-23T14:15:47.653Z,30.8644
2019-04-23T14:16:56.191Z,35.6344
2019-04-23T14:18:10.468Z,33.2311
2019-04-23T14:19:02.325Z,32.5292
2019-04-23T14:20:13.797Z,33.5363
2019-04-23T14:22:51.128Z,34.3557
2019-04-23T14:23:57.794Z,33.2433
2019-04-23T14:24:59.251Z,30.7088
2019-04-23T14:27:01.164Z,30.5150
2019-04-23T14:29:21.636Z,33.9315
2019-04-23T14:30:39.024Z,37.2625
2019-04-23T14:32:01.294Z,35.3872
2019-04-23T14:32:48.717Z,31.1208
2019-04-23T14:34:01.311Z,32.7901
2019-04-23T14:35:11.479Z,28.6030
2019-04-23T14:36:07.662Z,34.1741
2019-04-23T14:39:41.073Z,35.3765
2019-04-23T14:40:43.156Z,34.8333
2019-04-23T14:41:54.163Z,29.7230
2019-04-23T14:43:15.122Z,31.7601
2019-04-23T14:44:10.757Z,31.5221
2019-04-23T14:45:33.862Z,38.0468
2019-04-23T14:48:00.853Z,32.4926
2019-04-23T14:48:39.071Z,30.3609
2019-04-23T14:49:58.874Z,31.7693
2019-04-23T14:51:00.071Z,27.9255
2019-04-23T14:53:26.093Z,28.1163
2019-04-23T14:54:24.832Z,32.2820
2019-04-23T14:55:48.965Z,29.4133
2019-04-23T14:56:52.607Z,32.9458
2019-04-23T14:57:55.854Z,31.2291
2019-04-23T15:00:03.206Z,29.2576
2019-04-23T15:03:26.728Z,36.2158
2019-04-23T15:04:32.007Z,30.1045
2019-04-23T15:05:51.778Z,30.1854
2019-04-23T15:07:58.065Z,31.2840
2019-04-23T15:09:19.659Z,34.1100
2019-04-23T15:10:32.629Z,31.7845
2019-04-23T15:11:29.495Z,29.2897
2019-04-23T15:12:38.126Z,35.1263
2019-04-23T15:15:02.578Z,30.3639
2019-04-23T15:16:09.791Z,31.8608
2019-04-23T15:17:12.686Z,38.0926
2019-04-23T15:18:25.267Z,29.6727
2019-04-23T15:20:42.339Z,34.4533
2019-04-23T15:25:21.579Z,29.1524
2019-04-23T15:27:02.529Z,27.9973
2019-04-23T15:28:09.161Z,31.9158
2019-04-23T15:29:27.836Z,33.6614
2019-04-23T15:30:45.949Z,32.8328
2019-04-23T15:32:03.196Z,31.6701
2019-04-23T15:33:11.790Z,30.0679
2019-04-23T15:34:13.998Z,29.9535
2019-04-23T15:35:31.589Z,29.3523
2019-04-23T15:36:41.546Z,30.6859
2019-04-23T15:38:53.826Z,27.8782
2019-04-23T15:41:08.298Z,30.3227
2019-04-23T15:42:26.425Z,27.8325
2019-04-23T15:43:14.475Z,31.6930
2019-04-23T15:44:16.373Z,31.5175
2019-04-23T15:45:42.260Z,27.6005
2019-04-23T15:48:00.583Z,31.8334
2019-04-23T15:49:07.935Z,29.1752
2019-04-23T15:50:21.488Z,34.4076
2019-04-23T15:51:20.132Z,31.5587
2019-04-23T15:52:30.230Z,32.7764
2019-04-23T15:53:26.649Z,31.2947
2019-04-23T15:54:43.047Z,29.7871
2019-04-23T15:55:55.452Z,30.4234
2019-04-23T15:57:01.187Z,31.3405
2019-04-23T16:00:17.829Z,31.2856
2019-04-23T16:01:39.556Z,35.3170
2019-04-23T16:02:09.706Z,36.2142
2019-04-23T16:03:13.589Z,31.2154
2019-04-23T16:04:19.822Z,30.6477
2019-04-23T16:05:25.751Z,31.6640
2019-04-23T16:06:32.723Z,30.7500
2019-04-23T16:07:54.885Z,36.1563
2019-04-23T16:09:06.477Z,31.4946
2019-04-23T16:10:26.168Z,29.0974
2019-04-23T16:12:45.662Z,31.6915
2019-04-23T16:14:04.754Z,32.7596
2019-04-23T16:15:03.020Z,32.2789
2019-04-23T16:16:07.683Z,32.9381
2019-04-23T16:17:13.823Z,30.9545
2019-04-23T16:18:28.190Z,30.7088
2019-04-23T16:19:25.198Z,31.2154
2019-04-23T16:20:39.914Z,31.9585
2019-04-23T16:23:04.709Z,33.1884
2019-04-23T16:24:06.073Z,31.7556
2019-04-23T16:25:20.607Z,32.6116
2019-04-23T16:26:32.651Z,29.8756
2019-04-23T16:27:31.947Z,35.5505
2019-04-23T16:29:00.793Z,34.2657
2019-04-23T16:31:09.450Z,33.0877
2019-04-23T16:32:10.046Z,35.6100
2019-04-23T16:34:27.109Z,32.3751
2019-04-23T16:35:34.585Z,35.6527
2019-04-23T16:36:41.520Z,30.5257
2019-04-23T16:37:49.213Z,30.9331
2019-04-23T16:38:54.950Z,29.6315
2019-04-23T16:41:09.929Z,30.0542
2019-04-23T16:42:17.501Z,31.1711
2019-04-23T16:43:19.949Z,31.4397
2019-04-23T16:44:38.187Z,33.0831
2019-04-23T16:45:38.377Z,32.4712
2019-04-23T16:48:09.232Z,31.3069
2019-04-23T16:49:15.545Z,28.4276
2019-04-23T16:51:16.486Z,30.6386
2019-04-23T16:52:26.488Z,35.9365
2019-04-23T16:53:31.481Z,31.3451
2019-04-23T16:54:55.030Z,34.4579
2019-04-23T16:56:05.186Z,29.7780